Time;durP1;ratioP1;P1;durP2;ratioP2;P2;SDS_P1;SDS_P2;PMS_P1;PMS_P2;Temp;Humidity;BMP_temperature;BMP_pressure;BME280_temperature;BME280_humidity;BME280_pressure;Samples;Min_cycle;Max_cycle;Signal;HPM_P1;HPM_P2
2022/01/28 00:00:19;;;;;;;19.13;1.80;;;;;;;3.48;84.80;102254.50;2087746;28;44499;-76
2022/01/28 00:01:26;;;;;;;19.17;1.90;;;;;;;3.53;85.37;102258.16;2088061;28;44164;-76
2022/01/28 00:02:46;;;;;;;20.48;2.13;;;;;;;3.51;85.22;102260.78;2087348;28;44892;-76
2022/01/28 00:03:50;;;;;;;19.00;1.90;;;;;;;3.52;85.63;102259.94;2088749;28;20107;-76
2022/01/28 00:04:53;;;;;;;16.52;2.00;;;;;;;3.49;85.32;102262.47;2088068;28;45844;-76
2022/01/28 00:05:55;;;;;;;19.10;1.98;;;;;;;3.56;84.72;102268.84;2087982;28;44452;-76
2022/01/28 00:06:57;;;;;;;24.38;2.13;;;;;;;3.59;84.97;102263.66;2088212;28;39136;-76
2022/01/28 00:07:58;;;;;;;17.00;2.10;;;;;;;3.57;85.24;102267.97;2088087;28;46362;-76
2022/01/28 00:09:00;;;;;;;19.90;2.30;;;;;;;3.61;85.09;102267.22;2087667;28;44204;-76
2022/01/28 00:10:05;;;;;;;21.02;2.08;;;;;;;3.61;85.07;102267.22;2088090;28;45638;-76
2022/01/28 00:11:07;;;;;;;17.05;1.70;;;;;;;3.68;84.00;102261.25;2088183;28;44454;-76
2022/01/28 00:12:11;;;;;;;18.00;2.58;;;;;;;3.65;84.25;102261.16;2088786;28;33219;-76
2022/01/28 00:13:31;;;;;;;17.17;2.15;;;;;;;3.69;84.53;102248.88;2087216;28;46316;-76
2022/01/28 00:15:28;;;;;;;24.77;1.95;;;;;;;3.70;84.19;102262.19;2087743;28;41981;-76
2022/01/28 00:16:38;;;;;;;19.23;1.88;;;;;;;3.71;84.72;102265.72;2077223;28;45397;-76
2022/01/28 00:18:18;;;;;;;20.70;1.90;;;;;;;3.75;84.71;102265.84;2087687;28;46092;-76
2022/01/28 00:36:59;;;;;;;25.38;1.83;;;;;;;3.65;84.75;102305.28;2082430;28;40304;-76
2022/01/28 00:38:08;;;;;;;19.65;1.98;;;;;;;3.61;83.98;102304.31;2082830;28;20152;-76
2022/01/28 00:39:11;;;;;;;18.58;1.73;;;;;;;3.60;84.14;102313.97;2087293;28;42971;-76
2022/01/28 00:40:13;;;;;;;21.95;1.95;;;;;;;3.59;84.47;102313.97;2087269;28;45129;-76
2022/01/28 00:41:16;;;;;;;21.35;2.33;;;;;;;3.60;84.39;102318.38;2087358;28;45796;-76
2022/01/28 00:42:17;;;;;;;17.20;2.30;;;;;;;3.60;84.38;102316.63;2087860;28;45182;-76
2022/01/28 00:43:19;;;;;;;22.27;2.13;;;;;;;3.56;84.48;102313.88;2087271;28;46481;-76
2022/01/28 00:44:23;;;;;;;17.90;2.40;;;;;;;3.56;84.36;102322.69;2087481;28;43116;-76
2022/01/28 00:45:26;;;;;;;21.08;2.03;;;;;;;3.51;85.18;102313.72;2088121;28;38721;-76
2022/01/28 00:46:27;;;;;;;21.30;1.92;;;;;;;3.52;84.88;102326.13;2087534;28;46000;-76
2022/01/28 00:47:29;;;;;;;21.02;1.85;;;;;;;3.49;84.93;102325.16;2087042;28;43316;-76
2022/01/28 00:48:31;;;;;;;24.70;2.80;;;;;;;3.54;85.03;102324.41;2087742;28;45366;-76
2022/01/28 00:49:32;;;;;;;20.58;2.33;;;;;;;3.56;84.89;102325.34;2088082;28;44579;-76
2022/01/28 00:50:34;;;;;;;18.75;1.83;;;;;;;3.62;84.51;102333.50;2087449;28;39312;-76
2022/01/28 00:51:36;;;;;;;21.25;2.38;;;;;;;3.67;84.77;102333.59;2087562;28;45589;-76
2022/01/28 00:52:38;;;;;;;22.50;2.80;;;;;;;3.69;84.78;102338.94;2086829;28;46566;-76
2022/01/28 00:53:39;;;;;;;29.73;2.97;;;;;;;3.72;84.87;102334.63;2086943;28;41951;-77
2022/01/28 00:54:41;;;;;;;18.60;2.28;;;;;;;3.71;85.63;102348.72;2087643;28;44723;-77
2022/01/28 00:55:43;;;;;;;23.33;2.13;;;;;;;3.83;84.75;102337.56;2087866;28;24911;-78
2022/01/28 00:56:46;;;;;;;15.65;1.70;;;;;;;3.81;85.00;102334.00;2078978;28;44056;-78
2022/01/28 00:57:48;;;;;;;14.18;2.35;;;;;;;3.80;86.33;102335.75;2079129;28;42168;-77
2022/01/28 00:58:50;;;;;;;22.27;2.03;;;;;;;3.76;86.53;102341.78;2087462;28;38761;-77
2022/01/28 00:59:52;;;;;;;22.27;2.33;;;;;;;3.71;86.21;102337.22;2087776;28;45893;-77
2022/01/28 01:00:53;;;;;;;26.67;2.50;;;;;;;3.69;86.05;102347.78;2087818;28;44152;-77
2022/01/28 01:01:58;;;;;;;22.45;2.45;;;;;;;3.66;86.13;102345.06;2087848;28;45210;-77
2022/01/28 01:03:00;;;;;;;20.77;2.45;;;;;;;3.70;86.51;102349.59;2087677;28;42547;-77
2022/01/28 01:04:02;;;;;;;19.45;2.17;;;;;;;3.63;86.48;102359.09;2087980;28;40707;-78
2022/01/28 01:05:05;;;;;;;20.13;2.00;;;;;;;3.60;86.85;102355.47;2087632;28;46188;-78
2022/01/28 01:06:07;;;;;;;18.05;2.03;;;;;;;3.55;86.89;102358.00;2087922;28;45159;-78
2022/01/28 01:07:08;;;;;;;24.20;2.83;;;;;;;3.54;87.03;102357.94;2087676;28;45139;-78
2022/01/28 01:08:13;;;;;;;22.58;2.35;;;;;;;3.48;87.40;102361.28;2086912;28;44127;-77
2022/01/28 01:09:20;;;;;;;16.50;1.95;;;;;;;3.50;87.94;102361.34;2086952;28;32138;-78
2022/01/28 01:10:28;;;;;;;;;;;;;;;3.49;87.00;102359.56;2089002;28;20041;-78
2022/01/28 01:11:29;;;;;;;23.25;2.30;;;;;;;3.50;87.51;102356.97;2087726;28;44277;-77
2022/01/28 01:12:34;;;;;;;21.92;2.75;;;;;;;3.48;87.63;102366.59;2088001;28;45038;-78
2022/01/28 01:13:39;;;;;;;20.25;2.97;;;;;;;3.48;87.61;102371.00;2087023;28;43081;-77
2022/01/28 01:14:42;;;;;;;24.23;2.35;;;;;;;3.50;88.29;102372.84;2087323;28;44406;-77
2022/01/28 01:15:47;;;;;;;18.38;1.75;;;;;;;3.54;87.74;102371.19;2087074;28;43152;-77
2022/01/28 01:18:16;;;;;;;21.85;2.10;;;;;;;3.60;88.00;102368.72;2087437;28;41168;-77
2022/01/28 01:19:23;;;;;;;22.88;2.03;;;;;;;3.60;88.48;102381.94;2087942;28;43501;-79
2022/01/28 01:21:29;;;;;;;24.98;2.60;;;;;;;3.58;88.75;102383.66;2087248;28;45243;-78
2022/01/28 01:22:37;;;;;;;29.63;2.25;;;;;;;3.57;89.34;102398.66;2087378;28;41882;-77
2022/01/28 01:23:47;;;;;;;19.00;2.22;;;;;;;3.63;88.47;102387.34;2086874;28;37146;-77
2022/01/28 01:24:52;;;;;;;18.67;1.85;;;;;;;3.57;88.14;102397.75;2087375;28;45825;-77
2022/01/28 01:26:04;;;;;;;20.20;1.75;;;;;;;3.59;88.14;102390.75;2087983;28;45129;-78
2022/01/28 01:27:06;;;;;;;18.23;2.33;;;;;;;3.63;88.03;102382.03;2087734;28;46224;-77
2022/01/28 01:28:10;;;;;;;16.13;1.52;;;;;;;3.58;88.37;102400.44;2087883;28;43013;-77
2022/01/28 01:29:13;;;;;;;18.33;1.83;;;;;;;3.50;88.50;102401.97;2087724;28;45317;-77
2022/01/28 01:30:20;;;;;;;11.13;1.60;;;;;;;3.55;88.62;102410.97;2087576;28;45853;-77
2022/01/28 01:31:21;;;;;;;12.45;1.35;;;;;;;3.55;88.48;102410.03;2079127;28;43192;-77
2022/01/28 01:32:23;;;;;;;16.42;1.38;;;;;;;3.48;88.54;102418.66;2079469;28;45256;-77
2022/01/28 01:33:27;;;;;;;17.88;1.38;;;;;;;3.46;88.97;102418.59;2088366;28;44486;-77
2022/01/28 01:34:28;;;;;;;13.13;1.17;;;;;;;3.52;89.16;102431.16;2088906;28;45178;-78
2022/01/28 01:35:32;;;;;;;20.98;2.20;;;;;;;3.51;89.89;102430.25;2088282;28;44859;-77
2022/01/28 01:36:34;;;;;;;17.77;1.75;;;;;;;3.51;90.51;102418.75;2088444;28;43895;-77
2022/01/28 01:37:38;;;;;;;22.52;2.70;;;;;;;3.51;90.22;102439.94;2089282;28;46270;-77
2022/01/28 01:38:41;;;;;;;23.05;2.22;;;;;;;3.54;90.22;102434.75;2088515;28;44728;-77
2022/01/28 01:39:42;;;;;;;19.48;1.95;;;;;;;3.50;89.09;102406.34;2089657;28;45602;-77
2022/01/28 01:40:53;;;;;;;20.15;1.92;;;;;;;3.56;87.83;102401.25;2088881;28;46538;-77
2022/01/28 01:42:05;;;;;;;22.83;2.42;;;;;;;3.49;88.46;102415.16;2089169;28;44811;-77
2022/01/28 01:45:14;;;;;;;19.25;1.67;;;;;;;3.50;89.61;102422.25;2089090;28;45889;-77
2022/01/28 01:46:15;;;;;;;17.73;1.45;;;;;;;3.42;90.62;102438.78;2088252;28;45245;-77
2022/01/28 01:52:45;;;;;;;;;;;;;;;3.31;90.58;102437.56;2089230;28;45476;-77
2022/01/28 01:53:46;;;;;;;16.50;1.67;;;;;;;3.33;90.52;102441.16;2088810;28;44112;-77
2022/01/28 01:54:50;;;;;;;18.27;1.73;;;;;;;3.33;90.85;102446.47;2089846;28;24132;-77
2022/01/28 01:55:56;;;;;;;15.57;1.42;;;;;;;3.32;90.92;102435.81;2088923;28;43824;-77
2022/01/28 01:56:58;;;;;;;16.27;1.50;;;;;;;3.33;90.29;102446.47;2088358;28;47316;-77
2022/01/28 01:58:00;;;;;;;20.63;2.30;;;;;;;3.32;90.52;102449.97;2079894;28;44197;-77
2022/01/28 01:59:04;;;;;;;24.80;2.22;;;;;;;3.30;90.17;102451.66;2072488;28;46057;-77
2022/01/28 02:00:09;;;;;;;17.88;1.77;;;;;;;3.28;90.61;102453.34;2080601;28;44507;-77
2022/01/28 02:01:20;;;;;;;16.70;1.75;;;;;;;3.32;90.69;102449.06;2081878;28;20833;-77
2022/01/28 02:02:22;;;;;;;17.38;1.85;;;;;;;3.34;90.23;102455.28;2081819;28;45580;-77
2022/01/28 02:03:28;;;;;;;20.55;2.25;;;;;;;3.34;90.20;102455.28;2081554;28;20809;-76
2022/01/28 02:04:30;;;;;;;17.20;1.70;;;;;;;3.35;90.09;102468.56;2087910;28;46366;-78
2022/01/28 02:05:32;;;;;;;22.00;2.80;;;;;;;3.30;90.09;102464.88;2089434;28;44291;-78
2022/01/28 02:06:33;;;;;;;24.08;2.28;;;;;;;3.33;89.32;102461.44;2088906;28;42880;-77
2022/01/28 02:07:38;;;;;;;22.63;2.67;;;;;;;3.33;89.83;102467.63;2088250;28;45054;-78
2022/01/28 02:08:41;;;;;;;22.00;2.30;;;;;;;3.35;90.11;102463.28;2088112;28;44575;-78
2022/01/28 02:09:44;;;;;;;22.88;2.70;;;;;;;3.31;89.79;102466.69;2089031;28;43378;-77
2022/01/28 02:10:46;;;;;;;27.33;2.78;;;;;;;3.30;89.97;102462.22;2088686;28;44327;-77
2022/01/28 02:11:48;;;;;;;30.65;2.47;;;;;;;3.30;90.18;102467.53;2088261;28;45252;-78
2022/01/28 02:12:52;;;;;;;25.58;2.45;;;;;;;3.29;89.26;102465.75;2088138;28;45130;-78
2022/01/28 02:13:53;;;;;;;24.10;2.95;;;;;;;3.30;89.69;102469.28;2080412;28;41985;-77
2022/01/28 02:14:57;;;;;;;22.73;2.45;;;;;;;3.27;89.81;102475.41;2087629;28;45764;-78
2022/01/28 02:16:00;;;;;;;21.15;2.28;;;;;;;3.25;90.46;102474.44;2088899;28;44453;-78
2022/01/28 02:17:03;;;;;;;24.90;3.15;;;;;;;3.22;90.50;102477.00;2088935;28;44290;-78
2022/01/28 02:18:05;;;;;;;20.95;2.40;;;;;;;3.21;90.84;102472.53;2088149;28;45268;-78
2022/01/28 02:19:07;;;;;;;20.38;2.47;;;;;;;3.20;91.43;102476.94;2088542;28;40211;-77
2022/01/28 02:20:27;;;;;;;24.42;3.20;;;;;;;3.20;91.05;102470.75;2087949;28;43547;-77
2022/01/28 02:21:45;;;;;;;21.90;2.55;;;;;;;3.19;91.19;102476.88;2082725;28;45710;-77
2022/01/28 02:22:47;;;;;;;23.15;2.13;;;;;;;3.19;91.05;102482.19;2088399;28;45781;-77
2022/01/28 02:23:55;;;;;;;22.02;2.53;;;;;;;3.18;91.01;102488.34;2088454;28;46362;-78
2022/01/28 02:24:56;;;;;;;28.05;2.50;;;;;;;3.18;90.98;102491.00;2088834;28;44440;-78
2022/01/28 02:26:00;;;;;;;26.73;3.40;;;;;;;3.17;91.06;102489.16;2088850;28;45639;-77
2022/01/28 02:27:02;;;;;;;18.30;2.55;;;;;;;3.18;90.79;102493.63;2088072;28;44571;-78
2022/01/28 02:28:07;;;;;;;23.25;2.40;;;;;;;3.18;90.77;102499.81;2089380;28;45440;-78
2022/01/28 02:29:13;;;;;;;28.17;2.70;;;;;;;3.18;91.09;102496.28;2095695;28;45442;-78
2022/01/28 02:30:15;;;;;;;22.05;2.25;;;;;;;3.21;91.56;102504.28;2089012;28;43592;-78
2022/01/28 02:31:21;;;;;;;25.23;2.60;;;;;;;3.21;90.66;102497.28;2088888;28;45129;-78
2022/01/28 02:32:23;;;;;;;27.13;3.08;;;;;;;3.21;90.79;102494.63;2087976;28;46397;-78
2022/01/28 02:33:25;;;;;;;22.15;3.38;;;;;;;3.21;90.91;102493.72;2087981;28;43004;-77
2022/01/28 02:34:27;;;;;;;31.88;2.95;;;;;;;3.22;90.65;102503.47;2088767;28;45342;-78
2022/01/28 02:35:28;;;;;;;26.58;3.22;;;;;;;3.22;91.08;102503.47;2088749;28;44344;-77
2022/01/28 02:36:30;;;;;;;24.73;3.00;;;;;;;3.24;90.56;102509.69;2088564;28;45494;-77
2022/01/28 02:37:32;;;;;;;28.52;2.45;;;;;;;3.25;90.70;102506.22;2088700;28;44939;-78
2022/01/28 02:38:34;;;;;;;24.50;3.03;;;;;;;3.25;89.93;102511.50;2088759;28;43151;-78
2022/01/28 02:39:36;;;;;;;25.70;2.42;;;;;;;3.24;90.27;102509.69;2088415;28;43131;-78
2022/01/28 02:40:46;;;;;;;28.35;2.50;;;;;;;3.23;90.21;102510.53;2088698;28;44546;-77
2022/01/28 02:41:58;;;;;;;20.17;2.30;;;;;;;3.22;90.41;102511.41;2087984;28;37836;-78
2022/01/28 02:43:17;;;;;;;24.38;2.72;;;;;;;3.21;90.16;102512.22;2088247;28;42055;-78
2022/01/28 02:44:38;;;;;;;38.63;3.38;;;;;;;3.25;89.14;102511.50;2088018;28;44582;-78
2022/01/28 02:45:41;;;;;;;21.83;2.72;;;;;;;3.25;89.28;102506.22;2088589;28;41388;-77
2022/01/28 02:47:02;;;;;;;22.17;2.47;;;;;;;3.22;89.14;102498.16;2088550;28;44810;-78
2022/01/28 02:48:13;;;;;;;25.20;2.42;;;;;;;3.19;89.79;102511.28;2088699;28;43876;-78
2022/01/28 02:49:14;;;;;;;22.88;2.30;;;;;;;3.23;89.03;102507.88;2088029;28;44115;-78
2022/01/28 02:50:18;;;;;;;20.02;2.35;;;;;;;3.26;88.21;102515.94;2088366;28;44614;-77
2022/01/28 02:51:23;;;;;;;20.38;2.55;;;;;;;3.28;88.60;102519.53;2088999;28;45514;-77
2022/01/28 02:52:35;;;;;;;22.60;2.90;;;;;;;3.27;88.22;102511.53;2088161;28;46336;-77
2022/01/28 02:53:52;;;;;;;25.10;2.42;;;;;;;3.30;88.09;102520.47;2088752;28;42138;-78
2022/01/28 02:54:54;;;;;;;19.83;2.05;;;;;;;3.35;87.11;102516.22;2087834;28;45529;-78
2022/01/28 02:56:02;;;;;;;22.02;2.42;;;;;;;3.37;86.56;102511.88;2088115;28;43624;-78
2022/01/28 02:57:06;;;;;;;19.20;2.70;;;;;;;3.42;86.73;102515.56;2088612;28;42865;-77
2022/01/28 02:58:41;;;;;;;18.58;2.60;;;;;;;3.44;86.02;102516.53;2087930;28;44920;-78
2022/01/28 02:59:35;;;;;;;23.92;1.92;;;;;;;3.48;85.72;102517.50;2087423;28;37434;-77
2022/01/28 03:00:40;;;;;;;20.48;2.38;;;;;;;3.55;84.36;102510.66;2097043;23;45608;-75
2022/01/28 03:01:42;;;;;;;18.55;1.95;;;;;;;3.56;84.86;102520.44;2065237;28;44488;-75
2022/01/28 03:02:46;;;;;;;24.85;2.45;;;;;;;3.59;85.00;102517.88;2063952;28;44294;-75
2022/01/28 03:03:50;;;;;;;21.38;2.63;;;;;;;3.63;83.39;102515.34;2072137;28;45446;-75
2022/01/28 03:06:17;;;;;;;23.85;2.40;;;;;;;3.60;84.19;102509.97;2066290;28;45601;-75
2022/01/28 03:07:25;;;;;;;22.83;2.10;;;;;;;3.59;84.70;102509.94;2073137;28;20089;-75
2022/01/28 03:08:29;;;;;;;14.38;1.70;;;;;;;3.58;84.40;102511.66;2072058;28;35541;-75
2022/01/28 03:09:50;;;;;;;26.95;2.85;;;;;;;3.59;83.86;102507.28;2072892;28;20034;-74
2022/01/28 03:11:30;;;;;;;20.67;2.13;;;;;;;3.58;84.36;102518.72;2063485;28;43333;-75
2022/01/28 03:12:35;;;;;;;20.50;2.20;;;;;;;3.61;84.42;102516.19;2061979;28;43884;-75
2022/01/28 03:14:59;;;;;;;21.88;2.30;;;;;;;3.63;83.11;102527.72;2056335;28;44089;-76
2022/01/28 03:16:16;;;;;;;17.45;2.67;;;;;;;3.62;83.38;102518.88;2066522;28;45404;-76
2022/01/28 03:17:51;;;;;;;25.25;2.83;;;;;;;3.67;82.11;102526.94;2063735;28;43303;-75
2022/01/28 03:18:55;;;;;;;22.02;2.25;;;;;;;3.68;82.46;102525.19;2062198;28;20034;-76
2022/01/28 03:22:33;;;;;;;23.55;2.33;;;;;;;3.65;82.80;102528.66;2067564;28;44276;-76
2022/01/28 03:23:38;;;;;;;18.05;1.98;;;;;;;3.65;83.24;102531.31;2071564;28;45887;-76
2022/01/28 03:24:41;;;;;;;24.95;2.00;;;;;;;3.63;81.37;102541.84;2071906;28;45422;-76
2022/01/28 03:25:44;;;;;;;20.55;2.45;;;;;;;3.63;81.97;102543.59;2071841;28;47703;-76
2022/01/28 03:26:50;;;;;;;16.83;2.10;;;;;;;3.61;82.38;102553.25;2071319;28;44483;-76
2022/01/28 03:27:54;;;;;;;23.08;2.00;;;;;;;3.69;80.79;102548.19;2071561;28;45328;-76
2022/01/28 03:28:56;;;;;;;16.60;1.30;;;;;;;3.73;81.06;102535.09;2072276;28;41135;-76
2022/01/28 03:29:58;;;;;;;18.15;2.05;;;;;;;3.74;79.76;102550.13;2072248;28;45706;-76
2022/01/28 03:31:00;;;;;;;18.35;1.92;;;;;;;3.83;79.65;102555.72;2063508;28;43964;-76
2022/01/28 03:32:02;;;;;;;17.98;1.67;;;;;;;3.85;79.63;102557.53;2065725;28;43695;-76
2022/01/28 03:33:04;;;;;;;19.48;1.45;;;;;;;3.91;78.87;102558.63;2072103;28;45351;-76
2022/01/28 03:34:06;;;;;;;20.58;1.83;;;;;;;3.91;79.74;102568.28;2072293;28;46029;-75
2022/01/28 03:35:10;;;;;;;17.77;1.85;;;;;;;3.91;78.62;102568.28;2072146;28;44132;-75
2022/01/28 03:36:13;;;;;;;15.85;1.73;;;;;;;3.93;78.33;102566.59;2071602;28;46143;-76
2022/01/28 03:37:15;;;;;;;19.40;2.20;;;;;;;3.91;78.46;102569.22;2055054;28;44479;-75
2022/01/28 03:38:17;;;;;;;21.30;2.10;;;;;;;3.96;78.73;102567.56;2055667;28;45437;-75
2022/01/28 03:39:19;;;;;;;15.30;1.33;;;;;;;3.96;79.04;102564.03;2071571;28;44745;-76
2022/01/28 03:40:20;;;;;;;18.50;1.70;;;;;;;3.91;78.89;102563.91;2063538;28;44834;-76
2022/01/28 03:41:25;;;;;;;16.63;2.05;;;;;;;3.94;77.81;102563.09;2055377;28;43295;-76
2022/01/28 03:42:29;;;;;;;16.92;1.85;;;;;;;3.90;78.57;102570.06;2055573;28;44649;-76
2022/01/28 03:43:31;;;;;;;16.27;1.83;;;;;;;3.87;78.40;102577.00;2063991;28;45406;-75
2022/01/28 03:44:34;;;;;;;14.10;1.65;;;;;;;3.88;79.04;102573.53;2071881;28;46659;-76
2022/01/28 03:45:36;;;;;;;17.63;2.00;;;;;;;3.87;78.39;102571.72;2071557;28;42349;-76
2022/01/28 03:46:40;;;;;;;14.40;1.88;;;;;;;3.90;77.41;102575.34;2054814;28;45662;-76
2022/01/28 03:47:42;;;;;;;21.20;2.10;;;;;;;3.96;78.17;102566.69;2056020;28;44742;-76
2022/01/28 03:48:44;;;;;;;18.58;2.03;;;;;;;3.98;78.81;102575.56;2072689;28;20807;-75
2022/01/28 03:49:46;;;;;;;17.73;1.85;;;;;;;4.00;79.50;102584.47;2071327;28;44023;-76
2022/01/28 03:50:50;;;;;;;24.10;2.22;;;;;;;4.01;77.52;102583.63;2072186;28;38490;-76
2022/01/28 03:51:52;;;;;;;17.85;1.60;;;;;;;3.99;78.63;102572.97;2063005;28;45351;-76
2022/01/28 03:52:54;;;;;;;18.73;2.00;;;;;;;4.09;78.32;102576.81;2055610;28;45714;-75
2022/01/28 03:53:56;;;;;;;16.50;1.48;;;;;;;4.07;77.09;102586.44;2062789;28;45166;-76
2022/01/28 03:54:58;;;;;;;18.23;1.50;;;;;;;4.07;77.72;102581.16;2063068;28;44917;-76
2022/01/28 03:56:02;;;;;;;17.48;1.63;;;;;;;4.07;77.06;102586.44;2062261;28;43130;-76
2022/01/28 03:57:06;;;;;;;20.88;2.13;;;;;;;4.08;77.56;102582.97;2071520;28;44368;-76
2022/01/28 03:58:10;;;;;;;17.48;1.73;;;;;;;4.11;78.12;102585.72;2071551;28;44605;-76
2022/01/28 03:59:14;;;;;;;21.75;1.80;;;;;;;4.09;78.03;102590.09;2063113;28;41831;-76
2022/01/28 04:00:16;;;;;;;18.95;1.73;;;;;;;4.09;79.01;102591.81;2062711;28;44267;-76
2022/01/28 04:01:25;;;;;;;16.30;1.95;;;;;;;4.11;77.89;102576.84;2063489;28;43371;-75
2022/01/28 04:02:31;;;;;;;21.58;1.60;;;;;;;4.10;76.98;102602.47;2063093;28;45720;-75
2022/01/28 04:12:17;;;;;;;17.67;1.42;;;;;;;4.22;77.85;102631.09;2063004;28;45714;-76
2022/01/28 04:13:23;;;;;;;13.57;1.48;;;;;;;4.23;78.19;102632.00;2063212;28;37060;-76
2022/01/28 04:18:02;;;;;;;18.75;1.80;;;;;;;3.97;79.54;102626.81;2071724;28;45673;-76
2022/01/28 04:19:04;;;;;;;17.20;1.77;;;;;;;3.85;80.24;102626.41;2071725;28;45825;-76
2022/01/28 04:20:08;;;;;;;20.70;2.35;;;;;;;3.82;78.82;102621.88;2094625;23;20017;-78
2022/01/28 04:21:09;;;;;;;16.52;1.50;;;;;;;3.87;78.70;102633.53;2057967;28;44309;-78
2022/01/28 04:22:11;;;;;;;19.83;2.10;;;;;;;3.90;77.75;102635.41;2055483;28;42177;-78
2022/01/28 04:23:13;;;;;;;18.48;1.75;;;;;;;3.86;78.38;102637.06;2071535;28;44097;-79
2022/01/28 04:24:15;;;;;;;17.77;1.30;;;;;;;3.83;79.08;102642.25;2071416;28;44228;-78
2022/01/28 04:25:16;;;;;;;11.93;1.40;;;;;;;3.88;79.41;102637.13;2071349;28;42100;-78
2022/01/28 04:26:18;;;;;;;12.00;1.10;;;;;;;3.90;77.79;102646.91;2071760;28;44891;-79
2022/01/28 04:27:20;;;;;;;11.10;1.25;;;;;;;3.90;79.85;102646.00;2071902;28;43082;-78
2022/01/28 04:28:21;;;;;;;15.32;1.65;;;;;;;3.91;78.36;102647.78;2071651;28;45390;-78
2022/01/28 04:29:23;;;;;;;16.52;1.83;;;;;;;3.87;77.33;102640.59;2071648;28;44128;-78
2022/01/28 04:30:25;;;;;;;20.38;2.00;;;;;;;3.89;77.98;102639.78;2071890;28;36231;-78
2022/01/28 04:31:26;;;;;;;15.55;1.88;;;;;;;3.87;77.82;102630.00;2054469;28;44258;-78
2022/01/28 04:32:30;;;;;;;10.80;1.92;;;;;;;3.89;78.83;102636.25;2055181;28;44899;-78
2022/01/28 04:33:31;;;;;;;15.57;1.58;;;;;;;3.85;79.19;102648.50;2062557;28;45412;-78
2022/01/28 04:34:35;;;;;;;12.65;1.52;;;;;;;3.83;79.95;102636.94;2063142;28;43963;-78
2022/01/28 04:35:37;;;;;;;14.93;1.42;;;;;;;3.82;78.74;102644.00;2071676;28;39979;-78
2022/01/28 04:36:52;;;;;;;14.98;2.72;;;;;;;3.79;79.05;102643.91;2062943;28;45673;-78
2022/01/28 04:39:14;;;;;;;17.38;1.48;;;;;;;3.82;79.56;102638.72;2060639;28;45856;-76
2022/01/28 04:40:18;;;;;;;18.75;2.03;;;;;;;3.79;79.43;102633.31;2062013;28;45163;-76
2022/01/28 04:42:17;;;;;;;13.57;1.63;;;;;;;3.82;78.75;102638.72;2062621;28;43746;-76
2022/01/28 04:43:00;;;;;;;19.77;1.50;;;;;;;3.79;78.66;102632.41;2045843;28;44349;-76
2022/01/28 04:44:11;;;;;;;17.02;1.35;;;;;;;3.85;79.23;102637.91;2068548;28;44454;-76
2022/01/28 04:45:25;;;;;;;16.90;1.75;;;;;;;3.82;79.46;102649.31;2071722;28;45573;-76
2022/01/28 04:46:47;;;;;;;13.35;1.30;;;;;;;3.82;79.88;102648.38;2062529;28;45135;-76
2022/01/28 04:49:16;;;;;;;18.70;1.50;;;;;;;3.79;79.20;102657.16;2071471;28;41252;-76
2022/01/28 04:50:31;;;;;;;16.02;1.52;;;;;;;3.80;78.87;102666.91;2071539;28;45621;-76
2022/01/28 04:53:14;;;;;;;17.40;1.13;;;;;;;3.85;79.17;102682.03;2062189;28;45177;-76
2022/01/28 04:54:38;;;;;;;20.08;1.88;;;;;;;3.83;78.71;102680.22;2059392;28;45315;-76
2022/01/28 04:56:31;;;;;;;15.65;1.65;;;;;;;3.86;80.50;102705.03;2071534;28;42795;-77
2022/01/28 04:57:21;;;;;;;20.02;1.73;;;;;;;3.81;81.18;102695.19;2057933;28;20055;-77
2022/01/28 04:58:45;;;;;;;22.23;1.73;;;;;;;3.86;82.43;102703.31;2069322;28;43370;-77
2022/01/28 05:02:20;;;;;;;16.88;1.92;;;;;;;3.77;82.90;102710.94;2071445;28;44014;-79
2022/01/28 05:03:39;;;;;;;15.45;1.38;;;;;;;3.75;83.36;102699.38;2071398;28;45441;-79
2022/01/28 05:04:57;;;;;;;15.68;1.63;;;;;;;3.69;82.52;102701.81;2071433;28;44499;-79
2022/01/28 05:07:42;;;;;;;19.85;1.95;;;;;;;3.75;82.86;102696.72;2072021;28;44376;-78
2022/01/28 05:10:10;;;;;;;18.73;1.63;;;;;;;3.68;80.99;102706.22;2072403;28;44010;-79
2022/01/28 05:14:04;;;;;;;22.27;1.50;;;;;;;3.66;82.88;102715.88;2072678;28;43678;-79
2022/01/28 05:15:28;;;;;;;17.58;2.13;;;;;;;3.66;81.69;102721.19;2072696;28;42982;-78
2022/01/28 05:25:48;;;;;;;20.70;3.42;;;;;;;3.83;81.10;102740.28;2072927;28;45311;-76
2022/01/28 05:26:59;;;;;;;23.35;3.05;;;;;;;3.87;79.70;102749.22;2072757;28;42510;-78
2022/01/28 05:28:02;;;;;;;23.73;4.05;;;;;;;3.88;80.17;102738.69;2072638;28;44455;-78
2022/01/28 05:29:04;;;;;;;22.48;4.00;;;;;;;3.86;79.26;102739.47;2055928;28;45373;-76
2022/01/28 05:30:07;;;;;;;20.55;3.10;;;;;;;3.99;81.24;102760.25;2048514;28;45627;-79
2022/01/28 05:31:08;;;;;;;22.23;3.83;;;;;;;3.94;78.95;102751.25;2064461;28;45279;-78
2022/01/28 05:32:11;;;;;;;17.98;2.53;;;;;;;3.96;77.64;102753.09;2073374;28;20161;-78
2022/01/28 05:33:15;;;;;;;21.00;3.40;;;;;;;3.95;77.46;102735.41;2064367;28;44591;-78
2022/01/28 05:34:17;;;;;;;26.30;2.75;;;;;;;4.00;78.91;102746.13;2064492;28;45352;-78
2022/01/28 05:35:19;;;;;;;22.08;2.72;;;;;;;4.04;78.98;102739.19;2064212;28;43475;-78
2022/01/28 05:36:22;;;;;;;21.02;2.22;;;;;;;4.04;78.91;102756.00;2064100;28;43644;-79
2022/01/28 05:37:24;;;;;;;20.52;1.73;;;;;;;4.03;76.67;102742.69;2064170;28;44008;-78
2022/01/28 05:38:25;;;;;;;16.92;2.20;;;;;;;4.06;77.60;102738.41;2064340;28;44580;-79
2022/01/28 05:39:27;;;;;;;19.27;2.45;;;;;;;4.06;76.36;102746.34;2072696;28;45475;-78
2022/01/28 05:40:30;;;;;;;23.17;2.67;;;;;;;4.06;77.68;102742.81;2072498;28;45945;-79
2022/01/28 05:41:32;;;;;;;19.45;2.90;;;;;;;4.02;75.88;102752.41;2055569;28;43999;-78
2022/01/28 05:42:34;;;;;;;25.30;2.78;;;;;;;3.98;76.62;102756.72;2056317;28;43979;-78
2022/01/28 05:43:35;;;;;;;19.98;2.78;;;;;;;4.01;76.58;102758.53;2073310;28;42430;-78
2022/01/28 05:44:37;;;;;;;22.58;2.90;;;;;;;4.08;74.11;102757.91;2072481;28;45716;-78
2022/01/28 05:45:40;;;;;;;27.15;3.25;;;;;;;4.04;75.62;102756.00;2072473;28;46620;-78
2022/01/28 05:46:42;;;;;;;19.20;2.05;;;;;;;4.11;73.72;102752.72;2072602;28;40272;-78
2022/01/28 05:47:43;;;;;;;26.65;2.47;;;;;;;4.11;77.42;102757.09;2072669;28;44274;-79
2022/01/28 05:48:45;;;;;;;23.92;3.08;;;;;;;4.08;76.72;102747.31;2072577;28;44665;-79
2022/01/28 05:49:47;;;;;;;26.42;2.72;;;;;;;4.15;74.78;102759.91;2072502;28;44000;-79
2022/01/28 05:50:49;;;;;;;19.83;2.10;;;;;;;4.17;74.46;102755.56;2072587;28;44933;-78
2022/01/28 05:51:51;;;;;;;20.02;2.58;;;;;;;4.16;72.64;102760.78;2063916;28;43087;-78
2022/01/28 05:52:55;;;;;;;24.17;2.90;;;;;;;4.15;74.83;102759.00;2063653;28;44087;-78
2022/01/28 05:53:58;;;;;;;17.95;2.42;;;;;;;4.13;73.64;102764.25;2072406;28;45595;-78
2022/01/28 05:54:59;;;;;;;22.13;2.63;;;;;;;4.18;74.38;102765.31;2072240;28;41934;-78
2022/01/28 05:56:01;;;;;;;21.63;2.65;;;;;;;4.20;72.87;102774.22;2047330;28;46808;-78
2022/01/28 05:57:03;;;;;;;21.73;2.42;;;;;;;4.19;73.12;102774.16;2048280;28;43181;-78
2022/01/28 05:58:05;;;;;;;19.38;2.70;;;;;;;4.20;74.39;102771.56;2063714;28;44281;-78
2022/01/28 05:59:07;;;;;;;19.88;2.80;;;;;;;4.20;72.87;102773.31;2055804;28;44419;-79
2022/01/28 06:00:09;;;;;;;18.73;2.72;;;;;;;4.25;74.01;102781.41;2056194;28;43991;-78
2022/01/28 06:01:17;;;;;;;25.30;3.05;;;;;;;4.26;73.25;102785.88;2057392;28;20088;-78
2022/01/28 06:02:19;;;;;;;28.00;2.90;;;;;;;4.28;74.03;102785.06;2056707;28;42226;-78
2022/01/28 06:03:21;;;;;;;23.90;2.90;;;;;;;4.25;71.28;102792.00;2063695;28;45878;-78
2022/01/28 06:04:25;;;;;;;23.40;2.30;;;;;;;4.23;72.19;102784.00;2072505;28;45516;-78
2022/01/28 06:05:30;;;;;;;23.08;3.00;;;;;;;4.23;74.02;102783.13;2072643;28;45452;-78
2022/01/28 06:06:33;;;;;;;25.67;1.98;;;;;;;4.30;74.08;102791.31;2063683;28;45373;-78
2022/01/28 06:07:41;;;;;;;25.92;3.53;;;;;;;4.27;72.86;102790.31;2056516;28;43724;-78
2022/01/28 06:08:43;;;;;;;24.00;2.50;;;;;;;4.30;69.22;102782.47;2064857;28;45141;-78
2022/01/28 06:09:44;;;;;;;20.27;2.22;;;;;;;4.32;71.30;102791.38;2072030;28;46261;-78
2022/01/28 06:10:46;;;;;;;23.45;2.38;;;;;;;4.30;69.54;102790.44;2072438;28;43321;-78
2022/01/28 06:11:50;;;;;;;15.65;2.38;;;;;;;4.27;71.40;102793.88;2072058;28;45669;-78